Time;durP1;ratioP1;P1;durP2;ratioP2;P2;SDS_P1;SDS_P2;PMS_P1;PMS_P2;Temp;Humidity;BMP_temperature;BMP_pressure;BME280_temperature;BME280_humidity;BME280_pressure;Samples;Min_cycle;Max_cycle;Signal;HPM_P1;HPM_P2
2023/06/27 00:01:20;;;;;;;;;7.33;6.33;;;;;;;;5082592;27;45449;-76
2023/06/27 00:03:45;;;;;;;;;9.00;8.67;;;;;;;;5082241;27;46373;-76
2023/06/27 00:06:16;;;;;;;;;10.00;9.00;;;;;;;;5100764;27;45456;-76
2023/06/27 00:08:42;;;;;;;;;8.33;7.67;;;;;;;;5100866;27;45359;-76
2023/06/27 00:11:07;;;;;;;;;7.33;7.33;;;;;;;;5082313;27;45338;-76
2023/06/27 00:13:32;;;;;;;;;9.67;8.00;;;;;;;;5100659;27;45240;-76
2023/06/27 00:16:00;;;;;;;;;4.33;4.00;;;;;;;;5100803;27;46446;-76
2023/06/27 00:18:34;;;;;;;;;8.00;7.00;;;;;;;;5100625;27;45396;-76
2023/06/27 00:20:59;;;;;;;;;5.67;5.67;;;;;;;;5100545;27;45413;-77
2023/06/27 00:23:24;;;;;;;;;7.00;5.33;;;;;;;;5100025;27;45431;-76
2023/06/27 00:25:50;;;;;;;;;6.00;6.00;;;;;;;;5100601;27;45480;-76
2023/06/27 00:28:15;;;;;;;;;7.00;5.00;;;;;;;;5100552;27;45298;-76
2023/06/27 00:30:40;;;;;;;;;6.67;6.33;;;;;;;;5061679;28;45340;-76
2023/06/27 00:33:06;;;;;;;;;5.00;4.33;;;;;;;;5079175;28;45336;-77
2023/06/27 00:35:32;;;;;;;;;9.00;9.00;;;;;;;;5079222;28;46097;-76
2023/06/27 00:37:58;;;;;;;;;10.33;9.33;;;;;;;;5079967;28;45320;-76
2023/06/27 00:40:24;;;;;;;;;11.00;10.00;;;;;;;;5080089;28;45210;-76
2023/06/27 00:42:49;;;;;;;;;10.33;9.00;;;;;;;;5061216;28;45520;-76
2023/06/27 00:45:14;;;;;;;;;12.33;12.33;;;;;;;;5079849;28;46690;-76
2023/06/27 00:47:40;;;;;;;;;12.00;11.33;;;;;;;;5061427;28;45351;-76
2023/06/27 00:50:05;;;;;;;;;13.00;12.00;;;;;;;;5079758;28;45406;-76
2023/06/27 00:52:31;;;;;;;;;12.00;10.00;;;;;;;;5079602;28;45281;-76
2023/06/27 00:54:56;;;;;;;;;12.67;10.00;;;;;;;;5060864;28;47603;-76
2023/06/27 00:57:22;;;;;;;;;11.67;10.67;;;;;;;;5079688;28;45330;-77
2023/06/27 00:59:47;;;;;;;;;9.33;9.33;;;;;;;;5079800;28;45263;-76
2023/06/27 01:02:13;;;;;;;;;9.67;9.00;;;;;;;;5079742;28;45451;-76
2023/06/27 01:04:39;;;;;;;;;11.00;9.67;;;;;;;;5061122;28;48518;-76
2023/06/27 01:07:09;;;;;;;;;9.00;7.33;;;;;;;;5079362;28;45532;-76
2023/06/27 01:09:37;;;;;;;;;10.00;10.00;;;;;;;;5079713;28;45303;-76
2023/06/27 01:12:15;;;;;;;;;10.00;9.00;;;;;;;;5079310;28;45444;-76
2023/06/27 01:14:43;;;;;;;;;10.33;8.00;;;;;;;;5079470;28;45416;-76
2023/06/27 01:17:09;;;;;;;;;10.00;9.67;;;;;;;;5060909;28;45400;-76
2023/06/27 01:19:34;;;;;;;;;10.00;10.00;;;;;;;;5079312;28;45507;-77
2023/06/27 01:22:03;;;;;;;;;10.00;10.00;;;;;;;;5060949;28;47353;-76
2023/06/27 01:24:29;;;;;;;;;12.33;10.33;;;;;;;;5061262;28;48292;-76
2023/06/27 01:26:54;;;;;;;;;10.00;10.00;;;;;;;;5060991;28;46370;-76
2023/06/27 01:29:19;;;;;;;;;9.00;8.67;;;;;;;;5088096;27;45374;-76
2023/06/27 01:31:49;;;;;;;;;7.00;6.33;;;;;;;;5099715;27;45368;-76
2023/06/27 01:34:14;;;;;;;;;7.33;6.67;;;;;;;;5081886;27;48602;-77
2023/06/27 01:36:46;;;;;;;;;6.00;6.00;;;;;;;;5084694;27;45433;-76
2023/06/27 01:39:15;;;;;;;;;7.00;6.00;;;;;;;;5103280;27;45347;-76
2023/06/27 01:41:43;;;;;;;;;4.67;4.67;;;;;;;;5102954;27;45507;-76
2023/06/27 01:44:10;;;;;;;;;6.33;6.00;;;;;;;;5084361;27;46099;-76
2023/06/27 01:46:35;;;;;;;;;6.33;6.00;;;;;;;;5103010;27;45318;-76
2023/06/27 01:49:01;;;;;;;;;6.00;5.00;;;;;;;;5102993;27;45287;-76
2023/06/27 01:51:26;;;;;;;;;5.00;4.00;;;;;;;;5084548;27;46153;-76
2023/06/27 01:53:51;;;;;;;;;5.33;5.33;;;;;;;;5102831;27;45357;-76
2023/06/27 01:56:17;;;;;;;;;4.00;3.00;;;;;;;;5102970;27;45368;-76
2023/06/27 01:58:42;;;;;;;;;4.33;4.33;;;;;;;;5103021;27;45407;-76
2023/06/27 02:01:08;;;;;;;;;7.67;7.00;;;;;;;;5102918;27;45428;-77
2023/06/27 02:03:33;;;;;;;;;5.67;3.67;;;;;;;;5084027;27;47277;-76
2023/06/27 02:05:59;;;;;;;;;4.33;4.33;;;;;;;;5102684;27;45305;-75
2023/06/27 02:08:24;;;;;;;;;6.00;6.00;;;;;;;;5103133;27;45334;-77
2023/06/27 02:10:49;;;;;;;;;3.67;3.67;;;;;;;;5102797;27;45528;-76
2023/06/27 02:13:14;;;;;;;;;4.33;4.33;;;;;;;;5102668;27;46336;-77
2023/06/27 02:15:40;;;;;;;;;6.00;6.00;;;;;;;;5102578;27;45471;-76
2023/06/27 02:18:05;;;;;;;;;4.67;4.33;;;;;;;;5102465;27;45257;-76
2023/06/27 02:20:30;;;;;;;;;4.67;4.67;;;;;;;;5102038;27;45496;-76
2023/06/27 02:22:56;;;;;;;;;6.67;5.00;;;;;;;;5102443;27;45318;-76
2023/06/27 02:25:21;;;;;;;;;6.00;4.67;;;;;;;;5102642;27;45289;-76
2023/06/27 02:27:46;;;;;;;;;4.00;4.00;;;;;;;;5102683;27;45269;-76
2023/06/27 02:30:11;;;;;;;;;5.33;3.67;;;;;;;;5067702;28;45981;-76
2023/06/27 02:32:37;;;;;;;;;5.33;5.00;;;;;;;;5081854;28;45259;-76
2023/06/27 02:35:02;;;;;;;;;6.00;5.00;;;;;;;;5081697;28;45320;-76
2023/06/27 02:37:27;;;;;;;;;5.33;5.33;;;;;;;;5081811;28;45210;-76
2023/06/27 02:39:54;;;;;;;;;6.67;6.67;;;;;;;;5081680;28;45427;-76
2023/06/27 02:42:19;;;;;;;;;5.33;4.67;;;;;;;;5081377;28;45385;-76
2023/06/27 02:44:44;;;;;;;;;6.00;4.67;;;;;;;;5081314;28;45304;-77
2023/06/27 02:47:10;;;;;;;;;6.00;5.67;;;;;;;;5081807;28;45301;-76
2023/06/27 02:49:35;;;;;;;;;4.33;4.33;;;;;;;;5063115;28;46345;-76
2023/06/27 02:52:00;;;;;;;;;7.33;7.33;;;;;;;;5081268;28;45957;-76
2023/06/27 02:54:25;;;;;;;;;6.00;6.00;;;;;;;;5062034;28;45300;-77
2023/06/27 02:56:51;;;;;;;;;3.67;3.67;;;;;;;;5081702;28;45526;-76
2023/06/27 02:59:16;;;;;;;;;6.00;5.67;;;;;;;;5081374;28;45411;-76
2023/06/27 03:01:41;;;;;;;;;4.00;4.00;;;;;;;;5063225;28;48413;-76
2023/06/27 03:04:08;;;;;;;;;6.00;6.00;;;;;;;;5081355;28;45378;-76
2023/06/27 03:06:33;;;;;;;;;5.00;5.00;;;;;;;;5081257;28;45489;-76
2023/06/27 03:08:59;;;;;;;;;5.00;5.00;;;;;;;;5062658;28;46185;-76
2023/06/27 03:11:24;;;;;;;;;4.00;4.00;;;;;;;;5062985;28;46944;-76
2023/06/27 03:13:49;;;;;;;;;4.00;3.00;;;;;;;;5081411;28;45349;-76
2023/06/27 03:16:15;;;;;;;;;6.00;6.00;;;;;;;;5081313;28;45363;-77
2023/06/27 03:18:40;;;;;;;;;5.00;5.00;;;;;;;;5080868;28;45307;-76
2023/06/27 03:21:05;;;;;;;;;6.00;6.00;;;;;;;;5081045;28;45444;-76
2023/06/27 03:23:30;;;;;;;;;5.00;3.33;;;;;;;;5081169;28;45196;-75
2023/06/27 03:25:55;;;;;;;;;5.00;5.00;;;;;;;;5081207;28;45238;-76
2023/06/27 03:28:20;;;;;;;;;5.00;5.00;;;;;;;;5081511;27;45277;-76
2023/06/27 03:30:46;;;;;;;;;7.00;5.67;;;;;;;;5101445;27;45305;-76
2023/06/27 03:33:11;;;;;;;;;3.33;3.33;;;;;;;;5101492;27;45409;-76
2023/06/27 03:35:36;;;;;;;;;5.33;5.33;;;;;;;;5082723;27;45490;-76
2023/06/27 03:38:02;;;;;;;;;7.00;5.00;;;;;;;;5082818;27;46067;-76
2023/06/27 03:40:27;;;;;;;;;3.67;3.67;;;;;;;;5101317;27;45314;-76
2023/06/27 03:42:52;;;;;;;;;6.00;6.00;;;;;;;;5082552;27;45938;-76
2023/06/27 03:45:19;;;;;;;;;7.00;7.00;;;;;;;;5082944;27;45550;-76
2023/06/27 03:47:44;;;;;;;;;7.00;5.67;;;;;;;;5100768;27;45323;-76
2023/06/27 03:50:10;;;;;;;;;7.00;6.00;;;;;;;;5082429;27;47115;-76
2023/06/27 03:52:35;;;;;;;;;8.00;6.00;;;;;;;;5100883;27;45367;-76
2023/06/27 03:55:00;;;;;;;;;5.00;5.00;;;;;;;;5086963;27;45301;-76
2023/06/27 03:57:25;;;;;;;;;5.00;5.00;;;;;;;;5061340;28;45829;-76
2023/06/27 03:59:50;;;;;;;;;5.00;5.00;;;;;;;;5080533;28;46200;-77
2023/06/27 04:02:15;;;;;;;;;7.00;6.00;;;;;;;;5080509;28;45433;-76
2023/06/27 04:04:41;;;;;;;;;7.33;6.00;;;;;;;;5062274;28;45258;-76
2023/06/27 04:07:06;;;;;;;;;8.00;8.00;;;;;;;;5080411;28;45494;-76
2023/06/27 04:09:31;;;;;;;;;6.33;6.33;;;;;;;;5080460;28;45323;-76
2023/06/27 04:11:58;;;;;;;;;7.00;6.00;;;;;;;;5080409;28;45335;-77
2023/06/27 04:14:23;;;;;;;;;7.67;5.67;;;;;;;;5080468;28;45587;-76
2023/06/27 04:16:49;;;;;;;;;5.33;5.33;;;;;;;;5080415;28;45312;-76
2023/06/27 04:19:14;;;;;;;;;7.00;7.00;;;;;;;;5079967;28;45450;-76
2023/06/27 04:21:39;;;;;;;;;8.00;8.00;;;;;;;;5061926;28;46206;-76
2023/06/27 04:24:05;;;;;;;;;6.00;5.00;;;;;;;;5080521;28;45269;-76
2023/06/27 04:26:30;;;;;;;;;6.00;5.00;;;;;;;;5061758;28;47015;-76
2023/06/27 04:28:56;;;;;;;;;5.67;5.67;;;;;;;;5085448;27;46124;-76
2023/06/27 04:31:21;;;;;;;;;4.33;4.33;;;;;;;;5100581;27;45238;-76
2023/06/27 04:33:47;;;;;;;;;2.67;2.67;;;;;;;;5100583;27;45238;-76
2023/06/27 04:36:15;;;;;;;;;6.00;5.33;;;;;;;;5082048;27;46168;-76
2023/06/27 04:38:41;;;;;;;;;5.00;5.00;;;;;;;;5100241;27;45393;-77
2023/06/27 04:41:07;;;;;;;;;5.00;5.00;;;;;;;;5100376;27;45337;-76
2023/06/27 04:43:33;;;;;;;;;6.00;6.00;;;;;;;;5100210;27;45379;-76
2023/06/27 04:45:59;;;;;;;;;5.00;5.00;;;;;;;;5082021;27;46471;-76
2023/06/27 04:48:24;;;;;;;;;5.00;4.33;;;;;;;;5099945;27;46897;-76
2023/06/27 04:50:50;;;;;;;;;8.00;6.33;;;;;;;;5099652;27;45334;-76
2023/06/27 04:53:15;;;;;;;;;6.67;6.00;;;;;;;;5098927;27;45284;-76
2023/06/27 04:55:40;;;;;;;;;5.00;5.00;;;;;;;;5081548;27;47100;-76
2023/06/27 04:58:05;;;;;;;;;5.67;5.67;;;;;;;;5100220;27;45535;-76
2023/06/27 05:00:30;;;;;;;;;5.33;5.00;;;;;;;;5100208;27;45198;-77
2023/06/27 05:02:56;;;;;;;;;7.00;7.00;;;;;;;;5099925;27;45231;-77
2023/06/27 05:05:21;;;;;;;;;5.33;5.33;;;;;;;;5081168;27;46126;-79
2023/06/27 05:07:46;;;;;;;;;7.00;6.00;;;;;;;;5100353;27;45649;-78
2023/06/27 05:10:12;;;;;;;;;6.00;5.67;;;;;;;;5105003;27;45396;-77
2023/06/27 05:12:37;;;;;;;;;7.00;6.00;;;;;;;;5104106;27;45688;-78
2023/06/27 05:15:04;;;;;;;;;8.33;8.33;;;;;;;;5091123;27;46170;-77
2023/06/27 05:17:29;;;;;;;;;6.00;5.33;;;;;;;;5083108;28;45274;-77
2023/06/27 05:19:54;;;;;;;;;8.00;8.00;;;;;;;;5082725;28;45338;-76
2023/06/27 05:22:20;;;;;;;;;5.00;5.00;;;;;;;;5083168;28;45321;-77
2023/06/27 05:24:45;;;;;;;;;7.33;5.00;;;;;;;;5083223;28;45302;-75
2023/06/27 05:27:10;;;;;;;;;3.67;3.67;;;;;;;;5083125;28;45387;-76
2023/06/27 05:29:35;;;;;;;;;5.00;5.00;;;;;;;;5075373;27;45331;-75
2023/06/27 05:32:00;;;;;;;;;5.00;4.33;;;;;;;;5084831;27;45324;-77
2023/06/27 05:34:26;;;;;;;;;4.00;4.00;;;;;;;;5104673;27;45353;-74
2023/06/27 05:36:51;;;;;;;;;5.33;5.00;;;;;;;;5106802;27;45389;-74
2023/06/27 05:39:16;;;;;;;;;6.67;6.00;;;;;;;;5104388;27;45292;-74
2023/06/27 05:41:41;;;;;;;;;4.00;3.33;;;;;;;;5109168;27;45255;-75
2023/06/27 05:44:09;;;;;;;;;6.67;6.33;;;;;;;;5112852;27;45294;-75
2023/06/27 05:46:38;;;;;;;;;5.00;5.00;;;;;;;;5093481;27;47285;-76
2023/06/27 05:49:04;;;;;;;;;6.00;6.00;;;;;;;;5113232;27;45349;-75
2023/06/27 05:51:29;;;;;;;;;5.00;5.00;;;;;;;;5108097;27;45496;-78
2023/06/27 05:53:54;;;;;;;;;7.00;5.67;;;;;;;;5106223;27;45524;-76
2023/06/27 05:56:19;;;;;;;;;8.33;8.00;;;;;;;;5104585;27;45291;-76
2023/06/27 05:58:45;;;;;;;;;4.67;4.67;;;;;;;;5095294;27;44928;-77
2023/06/27 06:01:10;;;;;;;;;7.33;7.00;;;;;;;;5116032;27;45301;-77
2023/06/27 06:03:35;;;;;;;;;8.33;8.33;;;;;;;;5116814;27;45230;-78
2023/06/27 06:06:00;;;;;;;;;7.33;7.33;;;;;;;;5100341;27;46283;-77
2023/06/27 06:08:25;;;;;;;;;3.00;3.00;;;;;;;;5082753;28;45428;-77
2023/06/27 06:10:51;;;;;;;;;7.67;6.00;;;;;;;;5086845;28;45353;-76
2023/06/27 06:13:16;;;;;;;;;6.33;5.33;;;;;;;;5064434;28;46117;-74
2023/06/27 06:15:41;;;;;;;;;6.67;6.67;;;;;;;;5064316;28;47635;-75
2023/06/27 06:18:06;;;;;;;;;6.67;6.67;;;;;;;;5084009;28;45331;-76
2023/06/27 06:20:31;;;;;;;;;10.67;8.33;;;;;;;;5077579;28;45427;-74
2023/06/27 06:22:59;;;;;;;;;9.33;6.00;;;;;;;;5081197;28;46015;-74
2023/06/27 06:25:24;;;;;;;;;8.00;6.00;;;;;;;;5082087;28;45258;-75
2023/06/27 06:27:49;;;;;;;;;11.33;8.00;;;;;;;;5082005;28;45347;-74
2023/06/27 06:30:15;;;;;;;;;6.00;6.00;;;;;;;;5098401;27;45445;-74
2023/06/27 06:32:40;;;;;;;;;6.33;6.33;;;;;;;;5102383;27;45357;-74
2023/06/27 06:35:06;;;;;;;;;9.00;7.67;;;;;;;;5102674;27;45353;-74
2023/06/27 06:37:31;;;;;;;;;8.33;7.33;;;;;;;;5083853;27;45294;-75
2023/06/27 06:39:56;;;;;;;;;6.33;5.67;;;;;;;;5083964;27;45262;-74
2023/06/27 06:42:21;;;;;;;;;6.00;5.00;;;;;;;;5101919;27;45377;-74
2023/06/27 06:44:48;;;;;;;;;7.00;6.00;;;;;;;;5102252;27;45294;-75
2023/06/27 06:47:13;;;;;;;;;7.00;6.00;;;;;;;;5102246;27;45234;-73
2023/06/27 06:49:39;;;;;;;;;5.00;5.00;;;;;;;;5097909;27;46548;-72
2023/06/27 06:52:04;;;;;;;;;6.67;6.00;;;;;;;;5081723;28;45475;-75
2023/06/27 06:54:29;;;;;;;;;9.33;6.67;;;;;;;;5063258;28;48221;-76
2023/06/27 06:56:54;;;;;;;;;8.00;6.00;;;;;;;;5083616;28;45361;-76
2023/06/27 06:59:19;;;;;;;;;7.00;7.00;;;;;;;;5083382;28;45675;-74
2023/06/27 07:01:45;;;;;;;;;6.67;5.00;;;;;;;;5081552;28;45312;-75
2023/06/27 07:04:10;;;;;;;;;5.67;5.00;;;;;;;;5063197;28;48397;-74
2023/06/27 07:06:35;;;;;;;;;5.33;5.33;;;;;;;;5083037;28;45302;-76
2023/06/27 07:09:00;;;;;;;;;8.33;7.00;;;;;;;;5065691;28;45444;-74
2023/06/27 07:11:25;;;;;;;;;6.00;4.33;;;;;;;;5085485;28;45358;-75
2023/06/27 07:13:51;;;;;;;;;7.00;7.00;;;;;;;;5083040;28;45306;-75
2023/06/27 07:16:16;;;;;;;;;5.00;5.00;;;;;;;;5063447;28;45257;-75
2023/06/27 07:18:41;;;;;;;;;6.00;5.00;;;;;;;;5081771;28;45321;-74
2023/06/27 07:21:07;;;;;;;;;6.00;6.00;;;;;;;;5062845;28;46310;-74
2023/06/27 07:23:32;;;;;;;;;8.00;7.00;;;;;;;;5063326;28;47315;-75
2023/06/27 07:25:57;;;;;;;;;7.00;7.00;;;;;;;;5081884;28;45337;-75
2023/06/27 07:28:23;;;;;;;;;3.67;3.67;;;;;;;;5065206;27;45292;-75
2023/06/27 07:30:48;;;;;;;;;7.00;7.00;;;;;;;;5086657;27;45440;-75
2023/06/27 07:33:13;;;;;;;;;7.67;7.67;;;;;;;;5082395;27;45426;-75
2023/06/27 07:35:39;;;;;;;;;5.67;5.67;;;;;;;;5102512;27;45404;-74
2023/06/27 07:38:04;;;;;;;;;5.67;5.33;;;;;;;;5103871;27;45436;-75
2023/06/27 07:40:29;;;;;;;;;7.00;4.33;;;;;;;;5083418;27;45880;-75
2023/06/27 07:42:54;;;;;;;;;5.00;3.67;;;;;;;;5082877;27;45691;-74
2023/06/27 07:45:20;;;;;;;;;5.67;4.67;;;;;;;;5101548;27;45317;-74
2023/06/27 07:47:45;;;;;;;;;6.00;5.33;;;;;;;;5101560;27;45305;-76
2023/06/27 07:50:10;;;;;;;;;5.00;5.00;;;;;;;;5101131;27;45187;-74
2023/06/27 07:52:35;;;;;;;;;4.33;4.00;;;;;;;;5082489;27;48353;-74
2023/06/27 07:55:01;;;;;;;;;4.67;4.67;;;;;;;;5085857;27;45194;-75
2023/06/27 07:57:26;;;;;;;;;6.00;5.00;;;;;;;;5104188;27;45328;-75
2023/06/27 07:59:51;;;;;;;;;6.33;6.33;;;;;;;;5109514;27;45314;-75
2023/06/27 08:02:16;;;;;;;;;5.33;4.67;;;;;;;;5104409;27;45247;-76
2023/06/27 08:04:41;;;;;;;;;5.33;5.33;;;;;;;;5104067;27;45285;-75
2023/06/27 08:07:10;;;;;;;;;5.33;5.00;;;;;;;;5083756;27;45414;-75
2023/06/27 08:09:35;;;;;;;;;6.33;5.00;;;;;;;;5085052;27;46125;-74
2023/06/27 08:12:00;;;;;;;;;7.00;5.33;;;;;;;;5104001;27;46236;-76
2023/06/27 08:14:27;;;;;;;;;9.00;6.00;;;;;;;;5086225;27;45327;-75
2023/06/27 08:16:52;;;;;;;;;6.00;6.00;;;;;;;;5083189;27;45315;-75
2023/06/27 08:19:17;;;;;;;;;3.33;3.33;;;;;;;;5081803;27;45495;-75
2023/06/27 08:21:43;;;;;;;;;3.67;3.67;;;;;;;;5082181;27;45482;-74
2023/06/27 08:24:08;;;;;;;;;4.00;4.00;;;;;;;;5082561;27;45401;-75
2023/06/27 08:26:33;;;;;;;;;4.00;4.00;;;;;;;;5102465;27;45302;-74
2023/06/27 08:28:58;;;;;;;;;4.00;4.00;;;;;;;;5076448;28;45591;-74
2023/06/27 08:31:24;;;;;;;;;6.33;5.00;;;;;;;;5083170;28;45418;-75
2023/06/27 08:33:49;;;;;;;;;4.00;4.00;;;;;;;;5080061;28;45256;-75
2023/06/27 08:36:14;;;;;;;;;4.67;4.67;;;;;;;;5080203;28;45312;-74
2023/06/27 08:38:39;;;;;;;;;6.67;5.33;;;;;;;;5079302;28;45331;-74
2023/06/27 08:41:05;;;;;;;;;6.00;4.00;;;;;;;;5079890;28;45366;-74
2023/06/27 08:43:30;;;;;;;;;5.00;4.00;;;;;;;;5076268;28;45833;-76
2023/06/27 08:45:55;;;;;;;;;4.00;4.00;;;;;;;;5061560;28;45360;-77
2023/06/27 08:48:21;;;;;;;;;5.00;5.00;;;;;;;;5060732;28;47042;-75
2023/06/27 08:50:50;;;;;;;;;5.00;4.00;;;;;;;;5062324;28;47339;-74
2023/06/27 08:53:17;;;;;;;;;7.00;4.00;;;;;;;;5078508;27;45430;-76
2023/06/27 08:55:48;;;;;;;;;4.00;4.00;;;;;;;;5060276;28;45419;-76
2023/06/27 08:58:15;;;;;;;;;6.00;4.33;;;;;;;;5099455;27;45495;-76
2023/06/27 09:00:42;;;;;;;;;5.67;5.67;;;;;;;;5081877;27;47026;-76
2023/06/27 09:03:07;;;;;;;;;5.33;4.67;;;;;;;;5102145;27;45353;-77
2023/06/27 09:05:35;;;;;;;;;5.00;4.00;;;;;;;;5065304;28;45419;-76
2023/06/27 09:08:00;;;;;;;;;5.33;4.00;;;;;;;;5082269;27;45257;-76
2023/06/27 09:10:26;;;;;;;;;4.33;4.00;;;;;;;;5080610;28;46029;-75
2023/06/27 09:12:52;;;;;;;;;7.00;6.00;;;;;;;;5062553;28;45272;-75
2023/06/27 09:15:18;;;;;;;;;5.33;4.00;;;;;;;;5080396;28;45318;-75
2023/06/27 09:17:43;;;;;;;;;6.00;6.00;;;;;;;;5058845;28;46494;-76
2023/06/27 09:20:09;;;;;;;;;3.00;3.00;;;;;;;;5079123;28;45227;-77
2023/06/27 09:22:35;;;;;;;;;4.67;4.67;;;;;;;;5078273;27;45515;-75
2023/06/27 09:25:14;;;;;;;;;3.67;3.67;;;;;;;;5077647;28;45472;-75
2023/06/27 09:27:39;;;;;;;;;3.33;3.00;;;;;;;;5098553;27;45268;-76
2023/06/27 09:30:05;;;;;;;;;3.33;3.33;;;;;;;;5074837;28;48309;-75
2023/06/27 09:32:30;;;;;;;;;4.00;4.00;;;;;;;;5067218;28;45255;-75
2023/06/27 09:34:55;;;;;;;;;4.00;4.00;;;;;;;;5084255;28;45230;-75
2023/06/27 09:37:21;;;;;;;;;5.33;4.00;;;;;;;;5087123;27;45338;-75
2023/06/27 09:39:46;;;;;;;;;5.67;5.67;;;;;;;;5062650;28;47431;-75
2023/06/27 09:42:11;;;;;;;;;4.33;4.00;;;;;;;;5072083;28;45332;-75
2023/06/27 09:44:37;;;;;;;;;6.67;4.00;;;;;;;;5073577;28;45343;-75
2023/06/27 09:47:03;;;;;;;;;6.00;4.00;;;;;;;;5072310;28;45712;-76
2023/06/27 09:49:28;;;;;;;;;4.00;4.00;;;;;;;;5085058;28;46468;-76
2023/06/27 09:51:54;;;;;;;;;6.00;5.33;;;;;;;;5085666;27;45551;-77
2023/06/27 09:54:21;;;;;;;;;5.00;4.67;;;;;;;;5078212;28;45624;-75
2023/06/27 09:56:53;;;;;;;;;6.67;5.33;;;;;;;;5064703;27;45514;-75
2023/06/27 09:59:22;;;;;;;;;3.33;3.33;;;;;;;;5094252;27;45750;-75
2023/06/27 10:01:49;;;;;;;;;4.00;4.00;;;;;;;;5084958;27;45278;-75
2023/06/27 10:04:14;;;;;;;;;5.00;3.67;;;;;;;;5070078;28;45391;-75
2023/06/27 10:06:40;;;;;;;;;5.33;4.00;;;;;;;;5085897;28;45284;-75
2023/06/27 10:09:05;;;;;;;;;4.67;4.00;;;;;;;;5086461;27;45361;-75
2023/06/27 10:11:31;;;;;;;;;4.00;4.00;;;;;;;;5064839;28;45399;-75
2023/06/27 10:13:56;;;;;;;;;6.00;6.00;;;;;;;;5064487;28;45564;-75
2023/06/27 10:16:22;;;;;;;;;5.00;5.00;;;;;;;;5083487;28;45588;-76
2023/06/27 10:18:50;;;;;;;;;5.33;5.00;;;;;;;;5061286;28;46981;-75
2023/06/27 10:21:16;;;;;;;;;6.00;5.00;;;;;;;;5079782;28;45460;-76
2023/06/27 10:23:44;;;;;;;;;5.00;5.00;;;;;;;;5079871;28;45402;-76
2023/06/27 10:26:09;;;;;;;;;5.00;5.00;;;;;;;;5081793;28;45235;-75
2023/06/27 10:28:35;;;;;;;;;2.67;2.67;;;;;;;;5066035;27;48138;-75
2023/06/27 10:31:02;;;;;;;;;4.67;4.67;;;;;;;;5102408;27;45139;-75
2023/06/27 10:33:28;;;;;;;;;3.00;3.00;;;;;;;;5084079;27;45315;-75
2023/06/27 10:35:57;;;;;;;;;6.00;4.33;;;;;;;;5102251;27;45235;-76
2023/06/27 10:38:22;;;;;;;;;4.00;4.00;;;;;;;;5102136;27;46522;-75
2023/06/27 10:41:02;;;;;;;;;6.00;5.00;;;;;;;;5102315;27;45367;-76
2023/06/27 10:43:39;;;;;;;;;4.67;4.67;;;;;;;;5102178;27;45310;-76
2023/06/27 10:46:05;;;;;;;;;6.33;6.33;;;;;;;;5102203;27;45544;-76
2023/06/27 10:48:32;;;;;;;;;5.00;5.00;;;;;;;;5102051;27;45485;-76
2023/06/27 10:51:07;;;;;;;;;5.33;4.33;;;;;;;;5101955;27;45646;-76
2023/06/27 10:53:32;;;;;;;;;5.50;5.50;;;;;;;;5100995;27;45319;-75
2023/06/27 10:55:57;;;;;;;;;6.00;5.00;;;;;;;;5101418;27;45354;-76
2023/06/27 10:58:26;;;;;;;;;5.67;5.00;;;;;;;;5100732;27;45381;-76
2023/06/27 11:00:52;;;;;;;;;4.00;2.00;;;;;;;;5083484;27;45299;-76
2023/06/27 11:03:19;;;;;;;;;5.00;5.00;;;;;;;;5101905;27;45306;-76
2023/06/27 11:05:51;;;;;;;;;4.33;3.33;;;;;;;;5100201;27;45490;-75
2023/06/27 11:08:26;;;;;;;;;4.75;4.00;;;;;;;;5081884;27;48214;-75
2023/06/27 11:10:57;;;;;;;;;3.67;3.67;;;;;;;;5081736;27;45340;-76
2023/06/27 11:13:23;;;;;;;;;3.50;3.25;;;;;;;;5100341;27;45361;-75
2023/06/27 11:15:50;;;;;;;;;4.00;4.00;;;;;;;;5081717;27;45601;-76
2023/06/27 11:18:16;;;;;;;;;5.00;5.00;;;;;;;;5081424;27;47497;-76
2023/06/27 11:20:41;;;;;;;;;4.50;4.25;;;;;;;;5082864;27;45309;-77
2023/06/27 11:23:07;;;;;;;;;6.67;6.33;;;;;;;;5083251;27;45438;-76
2023/06/27 11:25:36;;;;;;;;;3.00;3.00;;;;;;;;5082714;27;46508;-75
2023/06/27 11:28:04;;;;;;;;;3.00;3.00;;;;;;;;5082294;27;45502;-75
2023/06/27 11:30:30;;;;;;;;;4.50;4.50;;;;;;;;5053132;28;45282;-75
2023/06/27 11:32:55;;;;;;;;;3.67;3.67;;;;;;;;5042892;28;45316;-75
2023/06/27 11:35:21;;;;;;;;;5.33;4.00;;;;;;;;5042381;28;46190;-76
2023/06/27 11:37:46;;;;;;;;;5.33;5.00;;;;;;;;5042736;28;47304;-79
2023/06/27 11:40:15;;;;;;;;;6.00;4.00;;;;;;;;5042695;28;45328;-78
2023/06/27 11:42:40;;;;;;;;;4.67;4.67;;;;;;;;5060541;28;45429;-75
2023/06/27 11:45:10;;;;;;;;;5.00;4.67;;;;;;;;5059220;28;45371;-78
2023/06/27 11:47:35;;;;;;;;;4.67;4.67;;;;;;;;5060345;28;45382;-77
2023/06/27 11:50:04;;;;;;;;;5.50;5.50;;;;;;;;5060269;28;45353;-77
2023/06/27 11:52:29;;;;;;;;;5.00;5.00;;;;;;;;5042375;28;45260;-78
2023/06/27 11:54:55;;;;;;;;;5.67;4.00;;;;;;;;5060387;28;45282;-76
2023/06/27 11:57:21;;;;;;;;;7.67;6.00;;;;;;;;5060101;28;45311;-76
2023/06/27 11:59:50;;;;;;;;;5.00;4.33;;;;;;;;5042034;28;45358;-77
2023/06/27 12:02:15;;;;;;;;;3.25;3.25;;;;;;;;5060422;28;45284;-77
2023/06/27 12:04:42;;;;;;;;;4.75;3.50;;;;;;;;5041714;28;45446;-78
2023/06/27 12:07:20;;;;;;;;;5.00;5.00;;;;;;;;5041967;28;45693;-76
2023/06/27 12:09:45;;;;;;;;;5.00;5.00;;;;;;;;5060623;28;45402;-78
2023/06/27 12:12:10;;;;;;;;;5.50;5.25;;;;;;;;5042211;28;45426;-76
2023/06/27 12:14:39;;;;;;;;;4.25;4.25;;;;;;;;5050807;28;45449;-77
2023/06/27 12:17:04;;;;;;;;;4.33;4.33;;;;;;;;5061831;28;46469;-77
2023/06/27 12:19:29;;;;;;;;;5.33;5.33;;;;;;;;5079479;28;45643;-77
2023/06/27 12:21:54;;;;;;;;;6.00;4.75;;;;;;;;5061187;28;45599;-77
2023/06/27 12:24:20;;;;;;;;;4.25;4.25;;;;;;;;5080245;28;45469;-78
2023/06/27 12:26:45;;;;;;;;;3.75;3.75;;;;;;;;5061665;28;47095;-77
2023/06/27 12:29:11;;;;;;;;;5.25;4.75;;;;;;;;5069408;27;45354;-77
2023/06/27 12:31:37;;;;;;;;;4.00;3.50;;;;;;;;5100685;27;45419;-76
2023/06/27 12:34:03;;;;;;;;;5.25;4.75;;;;;;;;5081882;27;45342;-77
2023/06/27 12:36:29;;;;;;;;;3.75;3.75;;;;;;;;5081930;27;45749;-75
2023/06/27 12:38:54;;;;;;;;;3.33;3.33;;;;;;;;5082112;27;45867;-76
2023/06/27 12:41:23;;;;;;;;;4.00;4.00;;;;;;;;5100488;27;45221;-75
2023/06/27 12:43:48;;;;;;;;;4.33;3.67;;;;;;;;5099745;27;45570;-76
2023/06/27 12:46:13;;;;;;;;;5.00;5.00;;;;;;;;5081998;27;45657;-75
2023/06/27 12:48:39;;;;;;;;;2.67;2.67;;;;;;;;5098940;27;45366;-78
2023/06/27 12:51:04;;;;;;;;;2.67;2.67;;;;;;;;5082037;27;45429;-76
2023/06/27 12:53:29;;;;;;;;;5.67;4.00;;;;;;;;5082089;27;45348;-78
2023/06/27 12:55:55;;;;;;;;;4.00;4.00;;;;;;;;5100600;27;45338;-77
2023/06/27 12:58:20;;;;;;;;;5.00;3.00;;;;;;;;5081719;27;45403;-75
2023/06/27 13:00:46;;;;;;;;;2.67;2.67;;;;;;;;5081553;27;45537;-76
2023/06/27 13:03:12;;;;;;;;;4.67;4.67;;;;;;;;5081632;27;45973;-77
2023/06/27 13:05:40;;;;;;;;;3.67;3.00;;;;;;;;5099986;27;45329;-76
2023/06/27 13:08:08;;;;;;;;;5.33;5.33;;;;;;;;5070328;28;45822;-76
2023/06/27 13:10:33;;;;;;;;;4.00;3.00;;;;;;;;5074882;28;45355;-77
2023/06/27 13:13:01;;;;;;;;;4.33;4.33;;;;;;;;5071140;28;45511;-77
2023/06/27 13:15:26;;;;;;;;;4.00;4.00;;;;;;;;5046961;28;45476;-77
2023/06/27 13:17:51;;;;;;;;;5.00;5.00;;;;;;;;5060918;28;45409;-77
2023/06/27 13:20:16;;;;;;;;;3.00;3.00;;;;;;;;5081923;28;45301;-76
2023/06/27 13:22:45;;;;;;;;;2.33;2.33;;;;;;;;5061405;28;46148;-76
2023/06/27 13:25:11;;;;;;;;;4.00;3.00;;;;;;;;5063586;28;45680;-77
2023/06/27 13:27:37;;;;;;;;;5.00;4.67;;;;;;;;5063480;28;45861;-76
2023/06/27 13:30:03;;;;;;;;;3.00;3.00;;;;;;;;5079041;27;45302;-77
2023/06/27 13:32:31;;;;;;;;;4.67;4.00;;;;;;;;5105325;27;45432;-77
2023/06/27 13:34:56;;;;;;;;;5.33;5.33;;;;;;;;5085592;27;46898;-78
2023/06/27 13:37:21;;;;;;;;;5.50;5.25;;;;;;;;5084775;27;46233;-77
2023/06/27 13:39:47;;;;;;;;;4.75;4.75;;;;;;;;5084723;27;45381;-78
2023/06/27 13:42:12;;;;;;;;;40.67;32.67;;;;;;;;5085909;27;45174;-77
2023/06/27 13:44:37;;;;;;;;;17.00;11.67;;;;;;;;5066692;28;47636;-76
2023/06/27 13:47:03;;;;;;;;;4.00;4.00;;;;;;;;5066327;28;45859;-75
2023/06/27 13:49:29;;;;;;;;;2.00;2.00;;;;;;;;5064394;28;45282;-77
2023/06/27 13:51:57;;;;;;;;;5.33;5.33;;;;;;;;5064331;28;45492;-77
2023/06/27 13:54:22;;;;;;;;;4.67;4.67;;;;;;;;5064178;28;45495;-77
2023/06/27 13:56:47;;;;;;;;;3.00;3.00;;;;;;;;5064921;28;45804;-76
2023/06/27 13:59:13;;;;;;;;;3.25;3.25;;;;;;;;5083640;28;45457;-77
2023/06/27 14:01:38;;;;;;;;;6.33;6.33;;;;;;;;5065221;28;47861;-75
2023/06/27 14:04:04;;;;;;;;;4.67;4.33;;;;;;;;5063921;28;46173;-77
2023/06/27 14:06:32;;;;;;;;;2.75;2.75;;;;;;;;5064089;28;45328;-78
2023/06/27 14:08:57;;;;;;;;;5.00;5.00;;;;;;;;5064629;28;45329;-77
2023/06/27 14:11:23;;;;;;;;;4.00;3.33;;;;;;;;5064033;28;45236;-77
2023/06/27 14:13:52;;;;;;;;;5.00;5.00;;;;;;;;5063798;28;48342;-77
2023/06/27 14:16:18;;;;;;;;;4.67;4.33;;;;;;;;5064043;28;45361;-76
2023/06/27 14:18:43;;;;;;;;;4.67;4.67;;;;;;;;5063694;28;45412;-76
2023/06/27 14:21:11;;;;;;;;;4.67;4.67;;;;;;;;5082114;28;45290;-78
2023/06/27 14:23:37;;;;;;;;;6.00;4.00;;;;;;;;5062850;28;46203;-76
2023/06/27 14:26:03;;;;;;;;;4.00;4.00;;;;;;;;5063198;28;45347;-77
2023/06/27 14:28:29;;;;;;;;;4.00;4.00;;;;;;;;5063213;28;45299;-77
2023/06/27 14:30:54;;;;;;;;;5.00;5.00;;;;;;;;5063664;28;45341;-77
2023/06/27 14:33:21;;;;;;;;;5.50;5.00;;;;;;;;5063565;28;46968;-76